MAN weather

Public forecast

Using degrees Celsius for public forecast. Weather courtesy of forecast.io.

Current aviation weather report (METAR) for Manchester Airport

Retrieved 2020/08/14 19:20 UTC (0 seconds ago):

EGCC 141920Z AUTO 05007KT 9999 NCD 20/16 Q1016 NOSIG

Aviation forecast (TAF) for Manchester Airport

Retrieved 2020/08/14 18:00 UTC (1 hour ago):

TAF EGCC 141700Z 1418/1524 05008KT 9999 FEW045 TEMPO 1500/1512 BKN012 PROB30 TEMPO 1500/1509 8000 BKN008 TEMPO 1515/1518 6000 SHRA PROB30 TEMPO 1515/1524 3000 +SHRA +TSRA